Time;durP1;ratioP1;P1;durP2;ratioP2;P2;SDS_P1;SDS_P2;PMS_P1;PMS_P2;Temp;Humidity;BMP_temperature;BMP_pressure;BME280_temperature;BME280_humidity;BME280_pressure;Samples;Min_cycle;Max_cycle;Signal;HPM_P1;HPM_P2
2021/07/22 00:00:37;;;;;;;14.63;8.20;;;19.20;80.60;;;;;;5123492;27;20038;-67
2021/07/22 00:03:03;;;;;;;15.90;8.77;;;19.30;80.60;;;;;;5120958;27;20495;-68
2021/07/22 00:05:28;;;;;;;14.77;8.57;;;19.20;81.30;;;;;;5132194;27;20019;-67
2021/07/22 00:08:00;;;;;;;13.93;8.30;;;19.20;80.50;;;;;;5118250;27;20485;-68
2021/07/22 00:10:25;;;;;;;13.30;7.65;;;19.20;81.50;;;;;;5112895;27;20030;-68
2021/07/22 00:12:51;;;;;;;13.48;8.10;;;19.30;82.10;;;;;;5115692;27;20023;-68
2021/07/22 00:15:16;;;;;;;14.77;8.20;;;19.50;81.60;;;;;;5127838;27;20047;-68
2021/07/22 00:17:42;;;;;;;13.15;8.18;;;19.30;81.30;;;;;;5119226;27;20031;-68
2021/07/22 00:20:08;;;;;;;14.88;8.48;;;19.20;82.50;;;;;;5130332;27;20082;-69
2021/07/22 00:22:38;;;;;;;15.27;8.55;;;19.10;83.30;;;;;;5119554;27;20076;-68
2021/07/22 00:25:07;;;;;;;13.95;8.70;;;19.00;83.80;;;;;;5111417;28;20027;-68
2021/07/22 00:27:33;;;;;;;14.85;9.23;;;19.00;83.80;;;;;;5112709;27;20060;-68
2021/07/22 00:29:59;;;;;;;16.30;9.18;;;19.00;84.10;;;;;;5114712;27;20526;-68
2021/07/22 00:32:24;;;;;;;14.70;8.80;;;19.00;84.50;;;;;;5118711;27;20400;-68
2021/07/22 00:34:50;;;;;;;14.38;8.32;;;18.90;84.60;;;;;;5136177;27;20025;-69
2021/07/22 00:37:15;;;;;;;14.85;8.85;;;19.10;84.20;;;;;;5116245;27;20031;-68
2021/07/22 00:39:41;;;;;;;16.17;8.60;;;19.30;82.80;;;;;;5127191;27;20027;-68
2021/07/22 00:42:07;;;;;;;18.35;8.15;;;19.50;81.80;;;;;;5130340;27;20559;-68
2021/07/22 00:44:32;;;;;;;14.60;8.27;;;19.30;82.30;;;;;;5111175;28;20035;-68
2021/07/22 00:46:58;;;;;;;16.95;8.80;;;19.40;82.20;;;;;;5111260;28;20036;-68
2021/07/22 00:49:23;;;;;;;14.93;8.38;;;19.10;85.80;;;;;;5111279;28;20011;-67
2021/07/22 00:51:49;;;;;;;12.40;8.15;;;18.80;90.30;;;;;;5112106;28;20081;-69
2021/07/22 00:54:14;;;;;;;14.60;8.65;;;18.60;91.40;;;;;;5126527;28;20019;-68
2021/07/22 00:56:40;;;;;;;14.02;7.80;;;18.60;91.90;;;;;;5127021;28;20098;-68
2021/07/22 00:59:05;;;;;;;12.27;7.30;;;18.70;91.40;;;;;;5121694;28;20110;-68
2021/07/22 01:01:31;;;;;;;13.93;8.07;;;19.00;89.60;;;;;;5121066;28;20392;-68
2021/07/22 01:03:57;;;;;;;14.38;8.45;;;19.10;89.80;;;;;;5118594;28;20024;-69
2021/07/22 01:06:23;;;;;;;14.45;8.63;;;18.60;91.00;;;;;;5129170;28;20023;-69
2021/07/22 01:08:48;;;;;;;14.35;8.55;;;18.50;91.80;;;;;;5115271;27;20570;-70
2021/07/22 01:11:14;;;;;;;14.65;8.38;;;18.30;92.70;;;;;;5111215;28;20027;-68
2021/07/22 01:13:40;;;;;;;14.65;8.77;;;18.30;92.70;;;;;;5113762;28;20084;-68
2021/07/22 01:16:06;;;;;;;15.13;9.13;;;18.20;92.10;;;;;;5123223;27;20447;-68
2021/07/22 01:18:31;;;;;;;14.35;8.73;;;18.00;92.10;;;;;;5134339;27;20096;-68
2021/07/22 01:20:57;;;;;;;12.95;8.25;;;18.00;92.10;;;;;;5134056;27;20488;-68
2021/07/22 01:23:22;;;;;;;13.15;8.02;;;18.00;92.50;;;;;;5121395;27;20204;-67
2021/07/22 01:25:48;;;;;;;17.55;9.40;;;18.00;93.40;;;;;;5114735;27;20031;-68
2021/07/22 01:28:14;;;;;;;13.95;7.82;;;17.90;92.50;;;;;;5115150;27;20027;-68
2021/07/22 01:30:39;;;;;;;16.05;8.52;;;17.90;92.30;;;;;;5119305;27;20408;-67
2021/07/22 01:33:05;;;;;;;16.75;8.95;;;18.10;92.50;;;;;;5122388;27;20668;-68
2021/07/22 01:35:31;;;;;;;13.95;9.07;;;17.90;93.00;;;;;;5133720;27;20637;-67
2021/07/22 01:37:56;;;;;;;15.32;8.77;;;17.70;93.40;;;;;;5134574;27;20028;-67
2021/07/22 01:40:22;;;;;;;16.27;9.20;;;17.60;94.10;;;;;;5120406;27;20026;-69
2021/07/22 01:42:47;;;;;;;14.85;8.68;;;17.50;94.00;;;;;;5113626;28;20019;-68
2021/07/22 01:45:13;;;;;;;13.57;8.55;;;17.50;94.40;;;;;;5133279;27;20038;-68
2021/07/22 01:47:39;;;;;;;14.90;9.43;;;17.40;94.40;;;;;;5134924;27;20088;-68
2021/07/22 01:50:05;;;;;;;14.73;9.00;;;17.40;94.50;;;;;;5115134;27;20032;-67
2021/07/22 01:52:31;;;;;;;16.05;9.07;;;17.30;94.70;;;;;;5114049;27;20561;-68
2021/07/22 01:54:56;;;;;;;14.52;8.60;;;17.30;95.10;;;;;;5114196;27;20051;-68
2021/07/22 01:57:22;;;;;;;14.32;8.93;;;17.20;94.60;;;;;;5127751;27;20026;-67
2021/07/22 01:59:48;;;;;;;15.82;9.65;;;17.10;95.30;;;;;;5130433;27;20080;-68
2021/07/22 02:02:15;;;;;;;15.40;9.35;;;17.20;94.90;;;;;;5128108;27;20043;-67
2021/07/22 02:04:40;;;;;;;16.38;10.18;;;17.10;94.90;;;;;;5126430;27;20011;-67
2021/07/22 02:07:06;;;;;;;15.52;9.70;;;17.20;94.50;;;;;;5134261;27;20027;-67
2021/07/22 02:09:32;;;;;;;15.02;8.48;;;17.20;94.80;;;;;;5133790;27;20037;-67
2021/07/22 02:11:59;;;;;;;14.43;8.35;;;17.10;95.10;;;;;;5116632;27;20068;-67
2021/07/22 02:14:25;;;;;;;15.57;8.65;;;17.10;95.00;;;;;;5117237;27;20462;-68
2021/07/22 02:16:51;;;;;;;12.77;8.30;;;17.10;95.30;;;;;;5123234;27;20042;-69
2021/07/22 02:19:17;;;;;;;15.75;9.05;;;17.10;95.50;;;;;;5133958;27;20037;-68
2021/07/22 02:21:43;;;;;;;15.02;9.05;;;17.20;95.10;;;;;;5113375;27;20476;-68
2021/07/22 02:24:11;;;;;;;14.52;8.75;;;17.20;95.20;;;;;;5120139;27;20019;-68
2021/07/22 02:26:37;;;;;;;14.55;9.10;;;17.20;95.10;;;;;;5133881;27;20079;-69
2021/07/22 02:29:04;;;;;;;18.17;9.32;;;17.20;95.00;;;;;;5117541;27;20115;-68
2021/07/22 02:31:29;;;;;;;13.43;8.55;;;17.20;95.40;;;;;;5129137;27;20137;-68
2021/07/22 02:33:55;;;;;;;15.93;9.30;;;17.10;95.60;;;;;;5127706;27;20110;-68
2021/07/22 02:36:21;;;;;;;15.50;8.73;;;17.20;96.00;;;;;;5122332;27;20500;-68
2021/07/22 02:38:46;;;;;;;16.15;8.80;;;17.30;95.60;;;;;;5120640;27;20020;-68
2021/07/22 02:41:12;;;;;;;14.18;8.85;;;17.30;95.70;;;;;;5113631;28;20020;-68
2021/07/22 02:43:39;;;;;;;14.27;8.65;;;17.20;95.90;;;;;;5113150;27;20030;-68
2021/07/22 02:46:06;;;;;;;14.23;8.93;;;17.10;96.00;;;;;;5113512;28;20492;-68
2021/07/22 02:48:32;;;;;;;15.05;8.75;;;17.10;96.50;;;;;;5113715;28;20030;-67
2021/07/22 02:51:03;;;;;;;15.70;9.60;;;17.00;96.70;;;;;;5113261;28;20415;-69
2021/07/22 02:53:29;;;;;;;17.30;9.85;;;17.10;96.60;;;;;;5113412;28;20042;-68
2021/07/22 02:55:59;;;;;;;14.05;8.98;;;17.10;96.90;;;;;;5119001;27;20476;-69
2021/07/22 02:58:25;;;;;;;14.15;9.07;;;17.10;96.20;;;;;;5133408;27;20426;-69
2021/07/22 03:00:50;;;;;;;15.10;8.82;;;17.00;97.10;;;;;;5131967;27;20023;-68
2021/07/22 03:03:16;;;;;;;15.25;9.05;;;17.00;97.30;;;;;;5133965;27;20031;-67
2021/07/22 03:05:41;;;;;;;15.50;9.88;;;17.00;96.90;;;;;;5127910;27;20111;-68
2021/07/22 03:08:07;;;;;;;14.43;8.77;;;17.00;97.00;;;;;;5112990;28;20079;-68
2021/07/22 03:10:33;;;;;;;16.17;10.30;;;16.90;97.20;;;;;;5113015;27;20080;-69
2021/07/22 03:12:58;;;;;;;16.55;9.70;;;16.90;97.10;;;;;;5112352;27;20089;-68
2021/07/22 03:15:24;;;;;;;15.18;8.02;;;16.90;97.10;;;;;;5124141;27;20019;-67
2021/07/22 03:17:49;;;;;;;14.98;8.98;;;16.90;97.40;;;;;;5112981;28;20024;-68
2021/07/22 03:20:15;;;;;;;15.75;9.20;;;16.90;97.40;;;;;;5111356;28;20373;-69
2021/07/22 03:22:41;;;;;;;16.08;9.88;;;16.80;97.70;;;;;;5112801;28;20027;-69
2021/07/22 03:25:07;;;;;;;14.82;9.73;;;16.90;97.60;;;;;;5115118;27;21584;-68
2021/07/22 03:27:33;;;;;;;15.02;8.93;;;17.00;96.50;;;;;;5132786;27;20854;-68
2021/07/22 03:29:59;;;;;;;16.23;8.13;;;17.00;96.60;;;;;;5117779;27;20027;-68
2021/07/22 03:32:24;;;;;;;15.60;9.60;;;16.70;97.50;;;;;;5133265;27;20098;-68
2021/07/22 03:34:50;;;;;;;14.38;8.93;;;16.70;97.20;;;;;;5125376;27;20024;-67
2021/07/22 03:37:15;;;;;;;15.93;9.75;;;16.70;97.40;;;;;;5111319;27;20077;-69
2021/07/22 03:39:41;;;;;;;17.58;10.20;;;16.60;97.10;;;;;;5116309;27;20485;-67
2021/07/22 03:42:06;;;;;;;15.95;9.88;;;16.70;96.90;;;;;;5121130;27;20106;-67
2021/07/22 03:44:33;;;;;;;16.27;9.68;;;16.80;96.70;;;;;;5123591;27;20103;-68
2021/07/22 03:46:58;;;;;;;15.23;9.30;;;16.70;96.60;;;;;;5113118;27;20053;-68
2021/07/22 03:49:24;;;;;;;16.58;9.80;;;16.70;96.30;;;;;;5122922;27;20027;-68
2021/07/22 03:51:54;;;;;;;16.90;9.50;;;16.70;95.90;;;;;;5132739;27;20484;-68
2021/07/22 03:54:19;;;;;;;15.10;8.90;;;16.70;96.40;;;;;;5118623;27;20063;-67
2021/07/22 03:56:45;;;;;;;16.10;9.95;;;16.70;97.00;;;;;;5117876;27;20062;-70
2021/07/22 03:59:10;;;;;;;17.85;10.88;;;16.70;96.90;;;;;;5110573;28;20545;-68
2021/07/22 04:01:36;;;;;;;17.58;10.52;;;16.70;96.10;;;;;;5123462;27;20524;-69
2021/07/22 04:04:01;;;;;;;16.15;9.68;;;16.70;95.90;;;;;;5132419;27;20500;-68
2021/07/22 04:06:27;;;;;;;15.88;10.35;;;16.70;97.20;;;;;;5121291;27;20054;-68
2021/07/22 04:08:52;;;;;;;17.55;10.52;;;16.70;96.10;;;;;;5127239;27;20057;-68
2021/07/22 04:11:18;;;;;;;16.50;9.93;;;16.80;95.40;;;;;;5131510;27;20110;-68
2021/07/22 04:13:44;;;;;;;15.85;9.73;;;16.80;96.40;;;;;;5122211;27;20064;-69
2021/07/22 04:16:10;;;;;;;18.65;10.00;;;16.80;96.40;;;;;;5129207;27;20027;-68
2021/07/22 04:18:35;;;;;;;18.25;10.35;;;16.80;96.50;;;;;;5144026;27;20515;-68
2021/07/22 04:21:02;;;;;;;18.08;10.18;;;16.80;96.80;;;;;;5152388;27;20065;-68
2021/07/22 04:23:27;;;;;;;16.58;9.93;;;16.80;97.00;;;;;;5137851;27;20024;-64
2021/07/22 04:25:53;;;;;;;17.50;10.13;;;16.80;97.60;;;;;;5126247;27;20400;-68
2021/07/22 04:28:18;;;;;;;15.00;9.55;;;16.80;97.50;;;;;;5139867;27;20484;-68
2021/07/22 04:30:44;;;;;;;16.08;9.55;;;16.80;97.80;;;;;;5132276;27;20053;-68
2021/07/22 04:33:09;;;;;;;16.48;9.85;;;16.90;97.80;;;;;;5129896;27;20113;-68
2021/07/22 04:35:35;;;;;;;16.20;9.18;;;16.90;98.00;;;;;;5130112;27;20020;-69
2021/07/22 04:38:00;;;;;;;17.83;9.48;;;17.00;98.40;;;;;;5131624;27;20061;-67
2021/07/22 04:40:26;;;;;;;17.77;9.57;;;17.00;98.20;;;;;;5132151;27;20102;-67
2021/07/22 04:42:51;;;;;;;15.50;10.02;;;17.10;98.20;;;;;;5118455;27;20027;-69
2021/07/22 04:45:17;;;;;;;15.73;9.90;;;17.10;98.60;;;;;;5121064;27;20024;-69
2021/07/22 04:47:43;;;;;;;16.00;9.43;;;17.10;97.50;;;;;;5104978;28;20031;-67
2021/07/22 04:50:09;;;;;;;15.55;9.70;;;17.10;97.20;;;;;;5102090;27;20028;-68
2021/07/22 04:52:34;;;;;;;17.00;9.40;;;17.10;96.80;;;;;;5114562;28;20080;-69
2021/07/22 04:55:00;;;;;;;16.65;10.30;;;17.20;97.10;;;;;;5105132;28;20110;-68
2021/07/22 04:57:26;;;;;;;14.75;9.57;;;17.10;96.80;;;;;;5105728;28;20101;-68
2021/07/22 04:59:51;;;;;;;16.38;9.55;;;17.00;97.10;;;;;;5105194;28;20020;-67
2021/07/22 05:02:19;;;;;;;15.90;9.48;;;17.00;97.90;;;;;;5112125;28;20102;-69
2021/07/22 05:04:44;;;;;;;16.45;9.02;;;17.00;97.60;;;;;;5111529;28;20027;-68
2021/07/22 05:07:10;;;;;;;15.48;9.52;;;17.20;98.70;;;;;;5107619;28;20076;-69
2021/07/22 05:09:35;;;;;;;18.98;9.98;;;17.40;98.10;;;;;;5107325;28;20240;-68
2021/07/22 05:12:01;;;;;;;16.50;10.32;;;17.50;97.50;;;;;;5111839;28;20058;-68
2021/07/22 05:14:26;;;;;;;16.95;10.00;;;17.50;97.40;;;;;;5111550;27;20537;-68
2021/07/22 05:16:52;;;;;;;16.60;10.30;;;17.60;97.40;;;;;;5110514;28;20054;-71
2021/07/22 05:19:17;;;;;;;16.02;10.13;;;17.70;97.30;;;;;;5119709;28;20132;-68
2021/07/22 05:21:43;;;;;;;16.65;10.38;;;17.80;96.70;;;;;;5120951;27;20400;-68
2021/07/22 05:24:09;;;;;;;17.70;8.77;;;17.80;96.80;;;;;;5122988;28;20101;-68
2021/07/22 05:26:36;;;;;;;17.38;9.18;;;18.20;94.90;;;;;;5109619;28;20088;-69
2021/07/22 05:29:02;;;;;;;20.02;9.82;;;18.80;92.40;;;;;;5114575;28;20027;-69
2021/07/22 05:31:27;;;;;;;17.40;9.10;;;19.30;90.80;;;;;;5105748;28;20034;-69
2021/07/22 05:33:53;;;;;;;16.52;9.10;;;19.50;90.00;;;;;;5107214;28;20023;-71
2021/07/22 05:36:19;;;;;;;15.88;9.13;;;19.70;89.50;;;;;;5123437;27;20472;-65
2021/07/22 05:38:45;;;;;;;16.63;9.35;;;19.70;89.20;;;;;;5125561;28;20488;-66
2021/07/22 05:41:10;;;;;;;17.10;9.13;;;19.60;90.40;;;;;;5121675;28;20027;-67
2021/07/22 05:43:36;;;;;;;17.20;9.52;;;19.50;91.00;;;;;;5113211;27;20460;-67
2021/07/22 05:46:02;;;;;;;15.23;9.75;;;19.60;91.60;;;;;;5128817;27;20464;-67
2021/07/22 05:48:27;;;;;;;15.38;8.82;;;19.10;92.60;;;;;;5143579;27;20074;-68
2021/07/22 05:50:53;;;;;;;14.93;8.98;;;19.50;90.60;;;;;;5144273;27;20114;-67
2021/07/22 05:53:20;;;;;;;16.48;9.25;;;19.60;90.10;;;;;;5128051;27;20031;-69
2021/07/22 05:55:46;;;;;;;16.90;10.77;;;19.70;90.00;;;;;;5113826;27;20027;-68
2021/07/22 05:58:11;;;;;;;14.52;9.05;;;19.20;92.60;;;;;;5145331;27;20025;-68
2021/07/22 06:00:37;;;;;;;14.35;9.30;;;19.30;91.10;;;;;;5130128;27;20084;-68
2021/07/22 06:03:06;;;;;;;17.98;9.98;;;19.60;90.20;;;;;;5115253;27;20443;-67
2021/07/22 06:05:33;;;;;;;14.60;8.75;;;19.40;92.00;;;;;;5107824;28;20034;-66
2021/07/22 06:08:01;;;;;;;14.82;9.40;;;19.40;90.90;;;;;;5108239;28;20031;-67
2021/07/22 06:10:26;;;;;;;14.25;9.60;;;19.60;90.00;;;;;;5106271;28;20054;-68
2021/07/22 06:12:54;;;;;;;16.00;10.13;;;19.70;90.70;;;;;;5127477;27;20480;-68
2021/07/22 06:15:19;;;;;;;13.70;9.43;;;19.60;90.60;;;;;;5128494;27;20480;-68
2021/07/22 06:17:45;;;;;;;16.98;10.55;;;19.60;90.20;;;;;;5126654;27;20023;-64
2021/07/22 06:20:11;;;;;;;16.42;10.77;;;19.00;92.30;;;;;;5127324;27;20423;-68
2021/07/22 06:22:37;;;;;;;16.67;11.00;;;18.40;94.70;;;;;;5126883;27;20031;-65
2021/07/22 06:25:04;;;;;;;17.38;11.07;;;18.10;95.30;;;;;;5126978;27;20084;-67
2021/07/22 06:27:30;;;;;;;17.20;10.15;;;18.00;96.20;;;;;;5127924;27;20499;-66
2021/07/22 06:30:00;;;;;;;16.30;10.35;;;18.00;97.00;;;;;;5128011;27;20023;-67
2021/07/22 06:32:25;;;;;;;16.52;10.45;;;18.00;97.20;;;;;;5127786;27;20439;-69
2021/07/22 06:34:51;;;;;;;18.15;10.00;;;17.90;97.10;;;;;;5127455;27;20031;-67
2021/07/22 06:37:16;;;;;;;16.48;10.10;;;18.00;96.80;;;;;;5126704;27;20069;-68
2021/07/22 06:39:42;;;;;;;16.35;10.68;;;18.10;96.20;;;;;;5127436;27;20561;-66
2021/07/22 06:42:07;;;;;;;17.35;10.43;;;18.10;97.20;;;;;;5128181;27;20114;-67
2021/07/22 06:44:33;;;;;;;15.07;10.27;;;18.00;97.50;;;;;;5126093;27;20023;-66
2021/07/22 06:46:59;;;;;;;16.55;10.77;;;18.10;97.10;;;;;;5126176;27;20476;-68
2021/07/22 06:49:25;;;;;;;17.48;10.40;;;18.10;97.10;;;;;;5127444;27;20282;-68
2021/07/22 06:51:51;;;;;;;14.73;10.40;;;18.20;96.70;;;;;;5127816;27;20031;-66
2021/07/22 06:54:17;;;;;;;15.55;10.40;;;18.30;96.30;;;;;;5126828;27;20023;-69
2021/07/22 06:56:43;;;;;;;16.67;11.07;;;18.30;95.80;;;;;;5112597;27;20241;-69
2021/07/22 06:59:09;;;;;;;16.15;10.90;;;18.40;95.70;;;;;;5106599;28;20542;-69
2021/07/22 07:01:34;;;;;;;16.45;11.18;;;18.30;96.00;;;;;;5107132;28;20020;-68
2021/07/22 07:04:02;;;;;;;20.48;11.15;;;18.30;96.20;;;;;;5106358;28;20024;-68
2021/07/22 07:06:28;;;;;;;14.30;9.75;;;18.30;95.20;;;;;;5106439;28;20763;-66
2021/07/22 07:08:53;;;;;;;17.27;10.63;;;18.40;94.60;;;;;;5106620;28;20039;-67
2021/07/22 07:11:19;;;;;;;16.98;10.45;;;18.40;94.40;;;;;;5104044;28;20031;-66
2021/07/22 07:13:44;;;;;;;17.35;11.07;;;18.50;94.60;;;;;;5107041;28;20059;-68
2021/07/22 07:16:10;;;;;;;16.98;11.07;;;18.50;94.70;;;;;;5106374;28;20684;-66
2021/07/22 07:18:35;;;;;;;17.23;11.60;;;18.50;93.60;;;;;;5106138;28;20027;-68
2021/07/22 07:21:04;;;;;;;21.63;10.75;;;18.60;94.10;;;;;;5106615;28;20028;-65
2021/07/22 07:23:31;;;;;;;19.60;10.60;;;18.60;94.60;;;;;;5106424;28;20031;-68
2021/07/22 07:25:57;;;;;;;18.48;11.32;;;18.60;95.10;;;;;;5105414;28;20041;-67
2021/07/22 07:28:22;;;;;;;16.42;10.32;;;18.70;94.00;;;;;;5106245;28;20031;-66
2021/07/22 07:30:48;;;;;;;16.92;10.40;;;18.80;93.70;;;;;;5106387;28;20237;-68
2021/07/22 07:33:13;;;;;;;14.85;8.93;;;18.80;94.00;;;;;;5105858;28;20302;-69
2021/07/22 07:35:39;;;;;;;17.77;11.77;;;19.10;92.60;;;;;;5105672;28;20035;-68
2021/07/22 07:38:05;;;;;;;16.67;10.00;;;19.10;92.40;;;;;;5106064;28;20045;-66
2021/07/22 07:40:31;;;;;;;16.90;10.80;;;19.20;92.80;;;;;;5106132;28;20504;-68
2021/07/22 07:42:56;;;;;;;16.60;10.85;;;19.60;91.00;;;;;;5106070;28;20407;-67
2021/07/22 07:45:22;;;;;;;17.17;10.63;;;19.60;91.00;;;;;;5105613;28;20042;-68
2021/07/22 07:47:47;;;;;;;21.73;11.38;;;19.80;90.20;;;;;;5105764;28;20031;-67
2021/07/22 07:50:13;;;;;;;18.85;11.65;;;19.70;91.50;;;;;;5105570;28;20435;-67
2021/07/22 07:52:39;;;;;;;18.17;11.77;;;19.70;91.60;;;;;;5105826;28;20040;-67
2021/07/22 07:55:06;;;;;;;16.65;10.13;;;19.70;90.80;;;;;;5105673;28;20033;-69
2021/07/22 07:57:32;;;;;;;18.30;11.80;;;19.60;90.40;;;;;;5125405;27;20027;-66
2021/07/22 07:59:58;;;;;;;19.23;12.10;;;19.20;92.60;;;;;;5126510;27;20026;-68
2021/07/22 08:02:23;;;;;;;19.35;11.57;;;19.20;92.30;;;;;;5125819;27;20027;-68
2021/07/22 08:04:49;;;;;;;17.23;11.20;;;19.50;92.00;;;;;;5125954;27;20107;-69
2021/07/22 08:07:14;;;;;;;12.23;8.15;;;19.70;90.80;;;;;;5125830;27;20480;-68
2021/07/22 08:09:40;;;;;;;17.00;10.93;;;20.00;88.00;;;;;;5124728;27;20117;-68
2021/07/22 08:12:06;;;;;;;16.17;10.63;;;20.20;90.20;;;;;;5125952;27;20055;-67
2021/07/22 08:14:37;;;;;;;16.88;11.48;;;20.30;87.10;;;;;;5125941;27;20035;-69
2021/07/22 08:17:06;;;;;;;15.20;9.50;;;20.40;88.30;;;;;;5125734;27;20181;-67
2021/07/22 08:19:32;;;;;;;14.77;9.45;;;20.90;84.70;;;;;;5124921;27;20034;-68
2021/07/22 08:21:58;;;;;;;16.88;11.73;;;20.70;82.20;;;;;;5125559;27;20050;-68
2021/07/22 08:24:23;;;;;;;17.17;11.25;;;20.70;85.20;;;;;;5124236;27;20050;-68
2021/07/22 08:26:49;;;;;;;12.50;8.32;;;21.20;83.20;;;;;;5123846;27;20027;-68
2021/07/22 08:29:14;;;;;;;13.57;8.50;;;21.70;78.40;;;;;;5126046;27;20026;-68
2021/07/22 08:31:40;;;;;;;16.60;11.27;;;21.80;77.30;;;;;;5125027;27;20035;-67
2021/07/22 08:34:06;;;;;;;15.85;10.75;;;22.20;78.50;;;;;;5124249;27;20392;-67
2021/07/22 08:36:32;;;;;;;15.73;10.30;;;22.50;78.70;;;;;;5125322;27;20027;-67
2021/07/22 08:38:58;;;;;;;17.92;10.43;;;22.20;79.40;;;;;;5125313;27;20026;-67
2021/07/22 08:41:24;;;;;;;14.80;9.52;;;22.70;74.50;;;;;;5125730;27;20027;-68
2021/07/22 08:43:50;;;;;;;17.10;10.55;;;22.00;76.60;;;;;;5115707;27;20413;-67
2021/07/22 08:46:17;;;;;;;17.33;11.98;;;21.80;80.10;;;;;;5104942;28;20112;-69
2021/07/22 08:48:43;;;;;;;15.13;9.85;;;22.50;76.20;;;;;;5106029;28;20028;-68
2021/07/22 08:51:09;;;;;;;15.48;10.25;;;22.80;73.90;;;;;;5123895;27;20095;-68
2021/07/22 08:53:35;;;;;;;17.15;10.57;;;22.80;75.20;;;;;;5123242;27;20125;-65
2021/07/22 08:56:05;;;;;;;14.88;10.45;;;22.70;75.00;;;;;;5130846;27;20113;-68
2021/07/22 08:58:31;;;;;;;15.32;10.05;;;22.30;76.70;;;;;;5145918;27;20045;-68
2021/07/22 09:01:00;;;;;;;15.20;10.15;;;22.70;73.40;;;;;;5143581;27;20071;-67
2021/07/22 09:03:25;;;;;;;15.93;10.40;;;22.40;75.70;;;;;;5125357;27;20080;-68
2021/07/22 09:05:51;;;;;;;17.52;10.52;;;23.50;72.50;;;;;;5123698;28;20027;-69
2021/07/22 09:08:16;;;;;;;17.70;11.70;;;23.70;71.30;;;;;;5124743;28;20023;-67
2021/07/22 09:10:42;;;;;;;14.20;9.35;;;23.60;70.00;;;;;;5125158;28;20031;-68
2021/07/22 09:13:23;;;;;;;18.70;12.43;;;23.50;69.40;;;;;;5124627;28;20058;-68
2021/07/22 09:15:52;;;;;;;14.05;8.85;;;23.70;70.40;;;;;;5123469;27;20448;-69
2021/07/22 09:18:27;;;;;;;18.70;9.52;;;23.60;69.00;;;;;;5125097;28;20023;-67
2021/07/22 09:20:54;;;;;;;15.75;10.00;;;24.00;67.30;;;;;;5111418;27;20020;-67
2021/07/22 09:23:29;;;;;;;17.83;10.82;;;24.50;67.40;;;;;;5103996;28;20073;-66
2021/07/22 09:25:55;;;;;;;17.23;9.48;;;25.20;64.70;;;;;;5116782;28;20031;-68
2021/07/22 09:28:25;;;;;;;20.50;10.35;;;24.40;66.50;;;;;;5111505;28;20028;-66
2021/07/22 09:30:58;;;;;;;16.98;9.50;;;23.20;70.50;;;;;;5104205;28;20026;-68
2021/07/22 09:33:43;;;;;;;19.98;9.43;;;22.60;73.10;;;;;;5104551;28;20024;-71
2021/07/22 09:36:21;;;;;;;16.63;10.32;;;22.00;76.20;;;;;;5106557;28;20027;-67
2021/07/22 09:38:47;;;;;;;16.52;9.45;;;22.00;77.60;;;;;;5107794;27;20103;-69
2021/07/22 09:41:23;;;;;;;17.67;10.00;;;21.80;76.10;;;;;;5108389;28;20102;-67
2021/07/22 09:43:49;;;;;;;15.18;9.90;;;21.60;77.20;;;;;;5107910;28;20028;-68
2021/07/22 09:46:15;;;;;;;17.95;10.98;;;21.50;78.40;;;;;;5107306;28;20118;-68
2021/07/22 09:49:10;;;;;;;14.55;9.77;;;21.60;78.50;;;;;;5108318;28;20099;-65
2021/07/22 09:51:37;;;;;;;16.08;9.77;;;21.90;77.20;;;;;;5108155;27;20028;-68
2021/07/22 09:54:07;;;;;;;16.48;11.15;;;21.90;75.80;;;;;;5107765;28;20020;-68
2021/07/22 09:56:40;;;;;;;16.20;10.85;;;21.80;76.80;;;;;;5119236;27;20110;-66
2021/07/22 09:59:08;;;;;;;15.90;10.48;;;22.00;75.20;;;;;;5128725;27;20023;-68
2021/07/22 10:01:43;;;;;;;17.40;10.32;;;21.90;75.80;;;;;;5128221;27;20080;-66
2021/07/22 10:04:09;;;;;;;16.85;10.38;;;21.80;75.90;;;;;;5127478;27;20023;-68
2021/07/22 10:06:37;;;;;;;17.20;10.23;;;22.20;74.10;;;;;;5128135;27;20031;-69
2021/07/22 10:09:05;;;;;;;16.38;10.27;;;22.10;74.20;;;;;;5126658;27;20039;-67
2021/07/22 10:11:32;;;;;;;14.88;10.55;;;22.40;72.60;;;;;;5127360;27;20050;-68
2021/07/22 10:13:58;;;;;;;15.07;9.75;;;22.80;72.40;;;;;;5127974;27;20403;-68
2021/07/22 10:16:25;;;;;;;15.85;9.82;;;22.50;72.20;;;;;;5127460;27;20019;-66
2021/07/22 10:18:53;;;;;;;15.93;9.70;;;22.30;73.50;;;;;;5128747;27;20023;-68
2021/07/22 10:21:19;;;;;;;15.15;9.63;;;22.20;74.00;;;;;;5128312;27;20084;-65
2021/07/22 10:23:46;;;;;;;17.13;10.38;;;22.00;75.20;;;;;;5127648;27;20240;-68
2021/07/22 10:26:12;;;;;;;17.40;10.27;;;22.70;70.60;;;;;;5127663;27;20587;-68
2021/07/22 10:28:38;;;;;;;15.10;9.65;;;24.90;62.10;;;;;;5125988;27;20296;-65
2021/07/22 10:31:08;;;;;;;15.32;9.98;;;23.40;68.60;;;;;;5127146;27;20035;-68
2021/07/22 10:33:36;;;;;;;16.33;9.52;;;22.30;73.10;;;;;;5127818;27;20023;-69
2021/07/22 10:36:03;;;;;;;13.90;9.30;;;22.20;74.30;;;;;;5127634;27;20038;-67
2021/07/22 10:38:43;;;;;;;16.90;10.13;;;22.10;74.90;;;;;;5127395;27;20502;-65
2021/07/22 10:41:30;;;;;;;18.87;11.67;;;22.10;74.60;;;;;;5127792;27;20030;-66
2021/07/22 10:43:55;;;;;;;17.20;10.85;;;22.10;74.70;;;;;;5126982;27;20065;-68
2021/07/22 10:46:21;;;;;;;17.58;10.57;;;22.00;75.70;;;;;;5126263;27;20035;-65
2021/07/22 10:48:47;;;;;;;16.38;10.15;;;21.90;76.10;;;;;;5127737;27;20031;-67
2021/07/22 10:51:13;;;;;;;16.00;10.02;;;21.80;76.00;;;;;;5127058;27;20031;-68
2021/07/22 10:53:53;;;;;;;15.45;10.18;;;21.70;76.60;;;;;;5127372;27;20027;-68
2021/07/22 10:56:22;;;;;;;16.13;10.85;;;21.70;76.60;;;;;;5118024;27;20024;-67
2021/07/22 10:58:52;;;;;;;15.20;10.13;;;21.70;76.30;;;;;;5105140;28;20027;-67
2021/07/22 11:01:43;;;;;;;17.17;10.47;;;21.80;75.60;;;;;;5105625;28;20104;-68
2021/07/22 11:04:09;;;;;;;16.58;10.40;;;21.80;76.00;;;;;;5106916;28;20034;-68
2021/07/22 11:07:00;;;;;;;15.18;9.77;;;21.80;76.00;;;;;;5106314;28;20114;-68
2021/07/22 11:09:40;;;;;;;16.55;10.77;;;21.80;75.60;;;;;;5106749;28;20038;-67
2021/07/22 11:12:06;;;;;;;16.67;10.93;;;21.80;75.90;;;;;;5106698;28;20024;-68
2021/07/22 11:14:32;;;;;;;15.60;10.23;;;21.80;75.40;;;;;;5105807;27;20500;-67
2021/07/22 11:16:58;;;;;;;18.55;12.27;;;21.80;75.50;;;;;;5106731;28;20012;-68
2021/07/22 11:19:24;;;;;;;16.38;10.63;;;23.10;68.80;;;;;;5106323;28;20020;-67
2021/07/22 11:21:50;;;;;;;14.30;10.10;;;23.50;68.40;;;;;;5108383;27;20039;-68
2021/07/22 11:24:23;;;;;;;15.27;9.63;;;22.60;71.60;;;;;;5106694;27;20051;-67
2021/07/22 11:26:50;;;;;;;16.80;10.13;;;22.00;74.10;;;;;;5114758;27;20081;-68
2021/07/22 11:29:17;;;;;;;15.95;9.77;;;21.90;75.20;;;;;;5126684;27;20545;-67
2021/07/22 11:31:50;;;;;;;16.42;11.30;;;22.40;73.20;;;;;;5126968;27;20031;-67
2021/07/22 11:34:25;;;;;;;16.42;10.30;;;23.60;65.60;;;;;;5126728;27;20054;-68
2021/07/22 11:36:54;;;;;;;16.60;10.23;;;23.40;68.50;;;;;;5126535;27;20020;-68
2021/07/22 11:39:30;;;;;;;23.60;11.55;;;22.70;71.30;;;;;;5115485;27;20039;-65
2021/07/22 11:42:07;;;;;;;20.48;11.27;;;22.30;73.20;;;;;;5105664;28;20024;-65
2021/07/22 11:44:33;;;;;;;24.65;11.65;;;21.90;74.70;;;;;;5105785;28;20438;-66
2021/07/22 11:46:58;;;;;;;17.38;10.32;;;21.80;75.30;;;;;;5103375;28;20080;-66
2021/07/22 11:49:33;;;;;;;15.15;10.30;;;21.80;75.90;;;;;;5106010;28;20423;-68
2021/07/22 11:51:59;;;;;;;16.00;10.27;;;21.80;75.70;;;;;;5105279;28;20023;-68
2021/07/22 11:54:24;;;;;;;15.73;10.25;;;21.80;75.60;;;;;;5104522;28;20031;-67
2021/07/22 11:56:55;;;;;;;17.13;10.55;;;21.80;75.70;;;;;;5133317;27;20025;-68
2021/07/22 11:59:29;;;;;;;14.13;9.73;;;21.80;75.60;;;;;;5146881;27;20054;-70
2021/07/22 12:01:57;;;;;;;16.85;10.82;;;21.90;75.90;;;;;;5147237;27;20018;-66
2021/07/22 12:04:30;;;;;;;13.63;9.65;;;21.90;76.00;;;;;;5146681;27;20102;-67
2021/07/22 12:06:57;;;;;;;15.73;8.93;;;21.70;76.20;;;;;;5146378;27;20104;-67
2021/07/22 12:09:23;;;;;;;13.75;9.15;;;21.70;76.20;;;;;;5146773;27;20058;-67
2021/07/22 12:11:56;;;;;;;15.55;9.65;;;21.80;76.10;;;;;;5130199;27;20109;-67
2021/07/22 12:14:33;;;;;;;14.27;9.48;;;21.80;76.30;;;;;;5123660;27;20304;-64
2021/07/22 12:17:11;;;;;;;14.35;10.02;;;21.70;76.60;;;;;;5131486;27;20421;-66
2021/07/22 12:19:38;;;;;;;13.80;9.60;;;22.00;74.90;;;;;;5126098;27;20040;-67
2021/07/22 12:22:25;;;;;;;15.80;9.60;;;21.90;75.30;;;;;;5133978;27;20031;-66
2021/07/22 12:24:52;;;;;;;18.00;9.75;;;21.80;75.90;;;;;;5125327;27;20051;-67
2021/07/22 12:27:44;;;;;;;15.27;9.60;;;21.90;75.40;;;;;;5125926;27;20031;-66
2021/07/22 12:30:13;;;;;;;17.52;9.15;;;21.90;76.00;;;;;;5121394;27;20020;-65
2021/07/22 12:32:47;;;;;;;14.70;10.50;;;21.90;75.60;;;;;;5113337;27;20032;-65